Time;durP1;ratioP1;P1;durP2;ratioP2;P2;SDS_P1;SDS_P2;PMS_P1;PMS_P2;Temp;Humidity;BMP_temperature;BMP_pressure;BME280_temperature;BME280_humidity;BME280_pressure;Samples;Min_cycle;Max_cycle;Signal;HPM_P1;HPM_P2
2023/04/30 00:01:52;;;;;;;26.48;17.35;;;12.10;99.90;;;;;;4999328;28;20498;-85
2023/04/30 00:04:18;;;;;;;22.05;15.93;;;12.10;99.90;;;;;;5010277;28;20432;-86
2023/04/30 00:06:43;;;;;;;19.88;14.73;;;12.00;99.90;;;;;;5014092;28;20385;-87
2023/04/30 00:09:09;;;;;;;24.85;15.48;;;12.10;99.90;;;;;;5006576;28;20018;-85
2023/04/30 00:11:34;;;;;;;16.60;14.07;;;12.00;99.90;;;;;;4994739;28;20359;-85
2023/04/30 00:14:00;;;;;;;18.65;14.13;;;12.00;99.90;;;;;;5014803;28;20030;-86
2023/04/30 00:16:25;;;;;;;18.23;13.40;;;11.90;99.90;;;;;;5010909;28;20031;-86
2023/04/30 00:18:51;;;;;;;16.38;12.13;;;11.90;99.90;;;;;;4994412;28;20142;-86
2023/04/30 00:21:17;;;;;;;17.38;11.60;;;11.90;99.90;;;;;;5004098;28;20034;-86
2023/04/30 00:23:42;;;;;;;13.43;10.38;;;11.90;99.90;;;;;;5014537;28;20120;-86
2023/04/30 00:26:08;;;;;;;14.07;10.40;;;11.90;99.90;;;;;;5014547;28;20065;-85
2023/04/30 00:28:33;;;;;;;11.88;10.43;;;11.90;99.90;;;;;;5016929;28;20029;-85
2023/04/30 00:30:59;;;;;;;19.15;11.18;;;11.80;99.90;;;;;;5016434;28;20026;-85
2023/04/30 00:33:24;;;;;;;11.07;9.88;;;11.80;99.90;;;;;;4999287;28;20081;-84
2023/04/30 00:35:50;;;;;;;13.80;10.00;;;11.80;99.90;;;;;;5012417;28;20045;-85
2023/04/30 00:38:16;;;;;;;13.90;9.98;;;11.80;99.90;;;;;;5013865;28;20061;-85
2023/04/30 00:40:42;;;;;;;16.13;9.68;;;11.60;99.90;;;;;;5013605;28;20562;-85
2023/04/30 00:43:08;;;;;;;12.48;9.68;;;11.60;99.90;;;;;;5010987;28;20019;-85
2023/04/30 00:45:34;;;;;;;12.60;10.05;;;11.50;99.90;;;;;;4994556;28;20363;-85
2023/04/30 00:47:59;;;;;;;13.68;9.38;;;11.60;99.90;;;;;;5006624;28;20117;-85
2023/04/30 00:50:25;;;;;;;10.13;9.15;;;11.60;99.90;;;;;;5013768;28;20111;-85
2023/04/30 00:52:50;;;;;;;11.15;9.77;;;11.70;99.90;;;;;;5013779;28;20515;-85
2023/04/30 00:55:16;;;;;;;11.60;9.45;;;11.70;99.90;;;;;;5013352;28;20076;-84
2023/04/30 00:57:42;;;;;;;13.98;9.75;;;11.60;99.90;;;;;;5012722;28;20535;-84
2023/04/30 01:00:10;;;;;;;11.38;9.35;;;11.30;99.90;;;;;;4993917;28;20022;-84
2023/04/30 01:02:36;;;;;;;11.00;9.88;;;11.30;99.90;;;;;;5006436;28;20091;-85
2023/04/30 01:05:02;;;;;;;14.45;9.73;;;11.20;99.90;;;;;;4995560;28;20022;-85
2023/04/30 01:07:29;;;;;;;12.50;10.15;;;11.20;99.90;;;;;;4998697;28;20133;-85
2023/04/30 01:09:55;;;;;;;13.70;10.05;;;11.30;99.90;;;;;;5013038;28;20109;-85
2023/04/30 01:12:43;;;;;;;14.05;9.25;;;11.30;99.90;;;;;;5014307;28;20126;-84
2023/04/30 01:15:22;;;;;;;12.63;9.77;;;11.40;99.90;;;;;;5013824;28;20069;-84
2023/04/30 01:18:18;;;;;;;10.38;9.32;;;11.50;99.90;;;;;;5012443;28;20084;-84
2023/04/30 01:20:51;;;;;;;17.05;11.13;;;11.50;99.90;;;;;;5012961;28;20080;-85
2023/04/30 01:23:41;;;;;;;15.25;10.40;;;11.60;99.90;;;;;;5011997;28;20113;-84
2023/04/30 01:26:27;;;;;;;9.70;8.80;;;11.60;99.90;;;;;;5013816;28;20056;-85
2023/04/30 01:28:55;;;;;;;12.30;9.07;;;11.60;99.90;;;;;;5013011;28;20026;-85
2023/04/30 01:31:23;;;;;;;14.02;9.60;;;11.30;99.90;;;;;;5001296;28;20038;-85
2023/04/30 01:33:48;;;;;;;10.02;9.10;;;11.20;99.90;;;;;;4993365;28;20041;-83
2023/04/30 01:36:25;;;;;;;18.45;8.98;;;11.20;99.90;;;;;;4999510;28;20022;-84
2023/04/30 01:39:25;;;;;;;10.90;9.32;;;11.20;99.90;;;;;;5012393;28;20064;-85
2023/04/30 01:42:11;;;;;;;13.00;10.07;;;11.30;99.90;;;;;;4999373;28;20050;-84
2023/04/30 01:45:01;;;;;;;13.70;9.13;;;11.40;99.90;;;;;;4992628;28;20045;-85
2023/04/30 01:47:35;;;;;;;11.68;9.57;;;11.40;99.90;;;;;;4993470;28;20568;-85
2023/04/30 01:50:25;;;;;;;13.82;9.32;;;11.40;99.90;;;;;;4996588;28;20061;-86
2023/04/30 01:52:57;;;;;;;14.23;9.88;;;11.30;99.90;;;;;;5004352;28;20069;-85
2023/04/30 01:55:34;;;;;;;12.27;9.07;;;11.30;99.90;;;;;;5013332;28;20045;-85
2023/04/30 01:58:04;;;;;;;12.63;9.65;;;11.40;99.90;;;;;;5012968;28;20022;-85
2023/04/30 02:00:29;;;;;;;13.50;9.15;;;11.40;99.90;;;;;;5000088;28;20033;-84
2023/04/30 02:02:56;;;;;;;16.50;10.18;;;11.40;99.90;;;;;;4993459;28;20026;-85
2023/04/30 02:05:22;;;;;;;10.77;9.70;;;11.40;99.90;;;;;;5012097;28;20568;-85
2023/04/30 02:07:49;;;;;;;11.38;8.95;;;11.50;99.90;;;;;;5012756;28;20097;-85
2023/04/30 02:10:16;;;;;;;14.20;9.68;;;11.40;99.90;;;;;;4995864;28;20023;-85
2023/04/30 02:12:42;;;;;;;12.55;9.88;;;11.30;99.90;;;;;;4992216;28;20041;-84
2023/04/30 02:15:08;;;;;;;14.45;10.57;;;11.20;99.90;;;;;;5012637;28;20105;-84
2023/04/30 02:17:34;;;;;;;11.85;10.10;;;11.20;99.90;;;;;;5012069;28;20029;-85
2023/04/30 02:19:59;;;;;;;11.20;9.38;;;11.10;99.90;;;;;;5010880;28;20023;-85
2023/04/30 02:22:25;;;;;;;11.50;9.10;;;11.20;99.90;;;;;;5012836;28;20033;-85
2023/04/30 02:24:54;;;;;;;11.05;9.75;;;11.20;99.90;;;;;;4997974;28;20026;-85
2023/04/30 02:27:21;;;;;;;14.65;9.57;;;11.20;99.90;;;;;;4992153;28;20053;-85
2023/04/30 02:29:46;;;;;;;10.68;9.57;;;11.10;99.90;;;;;;4993043;28;20061;-85
2023/04/30 02:32:13;;;;;;;12.13;9.60;;;11.20;99.90;;;;;;5004750;28;20069;-85
2023/04/30 02:34:39;;;;;;;14.60;9.98;;;11.10;99.90;;;;;;5011632;28;20378;-85
2023/04/30 02:37:05;;;;;;;13.73;9.27;;;11.20;99.90;;;;;;5007397;28;20022;-84
2023/04/30 02:39:31;;;;;;;11.55;8.93;;;11.20;99.90;;;;;;4993098;28;20054;-85
2023/04/30 02:41:57;;;;;;;13.60;8.95;;;11.20;99.90;;;;;;5007652;28;20452;-84
2023/04/30 02:44:22;;;;;;;9.77;8.75;;;11.20;99.90;;;;;;5012234;28;20089;-84
2023/04/30 02:46:48;;;;;;;10.52;8.77;;;11.20;99.90;;;;;;4994636;28;20089;-85
2023/04/30 02:49:13;;;;;;;10.30;9.15;;;11.30;99.90;;;;;;4992215;28;20026;-85
2023/04/30 02:51:39;;;;;;;10.52;9.25;;;11.20;99.90;;;;;;4992763;28;20587;-85
2023/04/30 02:54:05;;;;;;;11.80;9.73;;;11.20;99.90;;;;;;5000945;28;20038;-85
2023/04/30 02:56:30;;;;;;;9.70;8.63;;;11.30;99.90;;;;;;5001995;28;20026;-85
2023/04/30 02:58:56;;;;;;;9.80;8.75;;;11.20;99.90;;;;;;5005599;28;20112;-85
2023/04/30 03:01:21;;;;;;;13.70;9.63;;;11.20;99.90;;;;;;5012019;28;20044;-85
2023/04/30 03:03:47;;;;;;;13.02;9.43;;;11.20;99.90;;;;;;5005011;28;20077;-85
2023/04/30 03:06:12;;;;;;;16.20;9.85;;;11.10;99.90;;;;;;5001355;28;20029;-85
2023/04/30 03:08:38;;;;;;;13.98;9.27;;;10.90;99.90;;;;;;5001594;28;20493;-85
2023/04/30 03:11:04;;;;;;;14.23;9.82;;;11.40;99.90;;;;;;4996268;28;20470;-85
2023/04/30 03:13:29;;;;;;;10.88;9.25;;;10.90;99.90;;;;;;5000181;28;20069;-86
2023/04/30 03:15:58;;;;;;;12.10;9.80;;;10.70;99.90;;;;;;5000462;28;20026;-85
2023/04/30 03:18:24;;;;;;;10.88;8.95;;;10.80;99.90;;;;;;4996503;28;20112;-85
2023/04/30 03:20:50;;;;;;;10.27;9.27;;;10.80;99.90;;;;;;4995917;28;20113;-85
2023/04/30 03:23:15;;;;;;;12.93;9.98;;;10.70;99.90;;;;;;4995910;28;20373;-84
2023/04/30 03:25:41;;;;;;;14.18;9.98;;;10.70;99.90;;;;;;4996085;28;20049;-85
2023/04/30 03:28:07;;;;;;;12.77;9.85;;;10.50;99.90;;;;;;5004577;28;20370;-84
2023/04/30 03:30:33;;;;;;;16.77;10.82;;;10.30;99.90;;;;;;5014567;28;20030;-84
2023/04/30 03:32:59;;;;;;;14.27;9.90;;;10.40;99.90;;;;;;5003654;28;20034;-85
2023/04/30 03:35:25;;;;;;;14.95;10.15;;;10.40;99.90;;;;;;4996045;28;20529;-84
2023/04/30 03:37:50;;;;;;;11.60;10.02;;;10.50;99.90;;;;;;4995388;28;20463;-85
2023/04/30 03:40:16;;;;;;;13.20;10.32;;;10.50;99.90;;;;;;5003860;28;20049;-85
2023/04/30 03:42:41;;;;;;;12.68;11.38;;;10.50;99.90;;;;;;5015102;28;20025;-85
2023/04/30 03:45:07;;;;;;;13.63;9.82;;;10.50;99.90;;;;;;5011282;28;20022;-85
2023/04/30 03:47:35;;;;;;;13.52;10.93;;;10.50;99.90;;;;;;5014816;28;20022;-85
2023/04/30 03:50:02;;;;;;;11.88;10.00;;;10.50;99.90;;;;;;5015307;28;20021;-85
2023/04/30 03:52:28;;;;;;;10.88;9.40;;;10.40;99.90;;;;;;5014923;28;20038;-85
2023/04/30 03:54:53;;;;;;;15.50;9.88;;;10.50;99.90;;;;;;4998643;28;20441;-85
2023/04/30 03:57:19;;;;;;;13.15;10.00;;;10.60;99.90;;;;;;4995266;28;20437;-85
2023/04/30 03:59:45;;;;;;;12.80;9.93;;;10.70;99.90;;;;;;5011474;28;20029;-85
2023/04/30 04:02:11;;;;;;;17.45;10.73;;;10.80;99.90;;;;;;5011248;28;20038;-86
2023/04/30 04:04:37;;;;;;;12.77;10.45;;;10.70;99.90;;;;;;5001285;28;20084;-85
2023/04/30 04:07:02;;;;;;;10.77;9.30;;;10.80;99.90;;;;;;5014920;28;20104;-85
2023/04/30 04:09:28;;;;;;;13.68;9.55;;;10.80;99.90;;;;;;5015196;28;20030;-85
2023/04/30 04:11:54;;;;;;;11.57;8.70;;;10.70;99.90;;;;;;5013736;28;20120;-85
2023/04/30 04:14:20;;;;;;;12.68;9.73;;;10.80;99.90;;;;;;5014551;28;20034;-84
2023/04/30 04:16:45;;;;;;;10.52;8.75;;;10.70;99.90;;;;;;5013472;28;20041;-85
2023/04/30 04:19:14;;;;;;;9.95;8.95;;;10.70;99.90;;;;;;5001239;28;20113;-84
2023/04/30 04:21:39;;;;;;;12.60;9.68;;;10.60;99.90;;;;;;4994761;28;20485;-84
2023/04/30 04:24:07;;;;;;;9.02;8.07;;;10.70;99.90;;;;;;5002930;28;20104;-85
2023/04/30 04:26:36;;;;;;;11.77;8.23;;;10.60;99.90;;;;;;5013797;28;20473;-85
2023/04/30 04:29:03;;;;;;;8.93;8.02;;;10.40;99.90;;;;;;5014261;28;20049;-84
2023/04/30 04:31:29;;;;;;;9.48;8.50;;;10.40;99.90;;;;;;5011432;28;20092;-85
2023/04/30 04:33:57;;;;;;;11.00;8.95;;;10.30;99.90;;;;;;5010416;28;20125;-85
2023/04/30 04:36:27;;;;;;;10.13;7.80;;;10.20;99.90;;;;;;5021480;28;20022;-85
2023/04/30 04:38:53;;;;;;;14.23;9.00;;;10.20;99.90;;;;;;5017566;28;20385;-85
2023/04/30 04:41:19;;;;;;;10.45;8.13;;;10.20;99.90;;;;;;5013546;28;20050;-85
2023/04/30 04:43:45;;;;;;;11.70;8.35;;;10.20;99.90;;;;;;5013139;28;20030;-86
2023/04/30 04:46:11;;;;;;;12.95;8.77;;;10.30;99.90;;;;;;5009557;28;20076;-85
2023/04/30 04:48:36;;;;;;;17.67;9.02;;;10.10;99.90;;;;;;5001943;28;20242;-85
2023/04/30 04:51:02;;;;;;;11.05;7.95;;;10.10;99.90;;;;;;5013788;28;20049;-84
2023/04/30 04:53:27;;;;;;;8.77;7.70;;;10.10;99.90;;;;;;5013564;28;20034;-85
2023/04/30 04:55:53;;;;;;;10.35;7.70;;;10.10;99.90;;;;;;5013211;28;20033;-85
2023/04/30 04:58:18;;;;;;;10.25;7.60;;;10.00;99.90;;;;;;5011440;28;20028;-85
2023/04/30 05:00:44;;;;;;;9.35;7.40;;;9.90;99.90;;;;;;4993982;28;20422;-85
2023/04/30 05:03:10;;;;;;;10.30;7.65;;;9.90;99.90;;;;;;4994373;28;20033;-85
2023/04/30 05:05:35;;;;;;;9.35;7.57;;;9.80;99.90;;;;;;4994171;28;20146;-84
2023/04/30 05:08:01;;;;;;;9.73;6.85;;;9.80;99.90;;;;;;5005913;28;20059;-85
2023/04/30 05:10:26;;;;;;;12.18;7.45;;;9.80;99.90;;;;;;5013291;28;20056;-85
2023/04/30 05:12:52;;;;;;;14.05;7.47;;;9.70;99.90;;;;;;5013118;28;20037;-85
2023/04/30 05:15:17;;;;;;;9.25;7.10;;;9.70;99.90;;;;;;5012186;28;20477;-85
2023/04/30 05:17:43;;;;;;;9.02;7.50;;;9.60;99.90;;;;;;5013134;28;20481;-84
2023/04/30 05:20:10;;;;;;;9.35;8.45;;;9.60;99.90;;;;;;5008962;28;20026;-83
2023/04/30 05:22:35;;;;;;;16.15;7.72;;;9.50;99.90;;;;;;5005712;28;20025;-84
2023/04/30 05:25:01;;;;;;;9.68;7.57;;;9.60;99.90;;;;;;5013409;28;20153;-85
2023/04/30 05:27:26;;;;;;;10.90;7.88;;;9.50;99.90;;;;;;5007232;28;20109;-84
2023/04/30 05:29:52;;;;;;;10.95;7.63;;;9.60;99.90;;;;;;5002871;28;20029;-83
2023/04/30 05:32:17;;;;;;;11.25;7.93;;;9.50;99.90;;;;;;5011368;28;20175;-84
2023/04/30 05:34:43;;;;;;;11.05;7.88;;;9.50;99.90;;;;;;5010974;28;20028;-84
2023/04/30 05:37:08;;;;;;;8.25;7.35;;;9.50;99.90;;;;;;5010681;28;20100;-85
2023/04/30 05:39:34;;;;;;;10.60;8.05;;;9.60;99.90;;;;;;5012191;28;20436;-86
2023/04/30 05:42:01;;;;;;;14.15;8.23;;;9.50;99.90;;;;;;5012042;28;20444;-85
2023/04/30 05:44:29;;;;;;;10.27;8.13;;;9.60;99.90;;;;;;5012539;28;20105;-85
2023/04/30 05:46:54;;;;;;;13.32;8.27;;;9.70;99.90;;;;;;5012684;28;20018;-85
2023/04/30 05:49:20;;;;;;;10.13;8.50;;;9.80;99.90;;;;;;5011882;28;20092;-85
2023/04/30 05:51:45;;;;;;;13.50;8.68;;;9.80;99.90;;;;;;5008986;28;20014;-86
2023/04/30 05:54:11;;;;;;;11.95;7.70;;;9.80;99.90;;;;;;5007461;28;20034;-85
2023/04/30 05:56:37;;;;;;;9.55;8.30;;;9.80;99.90;;;;;;5012261;28;20072;-85
2023/04/30 05:59:02;;;;;;;9.77;7.72;;;9.80;99.90;;;;;;5020895;28;20022;-85
2023/04/30 06:01:28;;;;;;;14.45;8.00;;;9.90;99.90;;;;;;5014351;28;20528;-85
2023/04/30 06:03:54;;;;;;;13.10;8.00;;;9.90;99.90;;;;;;5011880;28;20018;-86
2023/04/30 06:06:19;;;;;;;9.70;7.63;;;9.90;99.90;;;;;;5012202;28;20018;-86
2023/04/30 06:08:45;;;;;;;11.18;7.88;;;9.90;99.90;;;;;;5011331;28;20541;-86
2023/04/30 06:11:11;;;;;;;9.10;8.18;;;10.00;99.90;;;;;;5011877;28;20113;-86
2023/04/30 06:13:38;;;;;;;12.82;7.60;;;10.00;99.90;;;;;;5009531;28;20100;-86
2023/04/30 06:16:04;;;;;;;8.48;7.68;;;10.10;99.90;;;;;;5009545;28;20428;-86
2023/04/30 06:18:30;;;;;;;9.15;8.05;;;9.90;99.90;;;;;;5011570;28;20026;-86
2023/04/30 06:20:55;;;;;;;9.55;7.65;;;10.00;99.90;;;;;;5012372;28;20381;-85
2023/04/30 06:23:21;;;;;;;8.88;7.93;;;10.10;99.90;;;;;;5011631;28;20378;-85
2023/04/30 06:25:46;;;;;;;8.25;7.45;;;10.20;99.90;;;;;;5006270;28;20029;-85
2023/04/30 06:28:12;;;;;;;13.38;7.97;;;10.20;99.90;;;;;;5011944;28;20502;-86
2023/04/30 06:30:37;;;;;;;12.15;8.30;;;10.30;99.90;;;;;;5009400;28;20026;-85
2023/04/30 06:33:03;;;;;;;14.43;8.07;;;10.20;99.90;;;;;;5010106;28;20496;-86
2023/04/30 06:35:29;;;;;;;7.68;6.82;;;10.20;99.90;;;;;;5011907;28;20362;-86
2023/04/30 06:37:54;;;;;;;10.38;8.07;;;10.30;99.90;;;;;;5011834;28;20050;-85
2023/04/30 06:40:20;;;;;;;9.07;7.75;;;10.20;99.90;;;;;;5009831;28;20061;-86
2023/04/30 06:42:46;;;;;;;9.35;7.90;;;10.50;99.90;;;;;;5007645;28;20125;-85
2023/04/30 06:45:14;;;;;;;12.00;8.25;;;10.70;99.90;;;;;;5013286;28;20018;-86
2023/04/30 06:47:41;;;;;;;9.43;8.52;;;10.60;99.90;;;;;;5012671;28;20021;-86
2023/04/30 06:50:07;;;;;;;10.05;7.35;;;10.70;99.90;;;;;;5013247;28;20026;-86
2023/04/30 06:52:33;;;;;;;11.00;8.48;;;10.70;99.90;;;;;;5007234;28;20053;-86
2023/04/30 06:54:59;;;;;;;11.48;8.88;;;10.90;99.90;;;;;;5003361;28;20474;-85
2023/04/30 06:57:26;;;;;;;11.32;8.40;;;11.00;99.90;;;;;;5011848;28;20030;-84
2023/04/30 06:59:51;;;;;;;9.82;8.35;;;11.00;99.90;;;;;;5015649;28;20032;-85
2023/04/30 07:02:17;;;;;;;9.50;8.02;;;11.20;99.90;;;;;;5014027;28;20026;-85
2023/04/30 07:04:43;;;;;;;9.75;8.38;;;11.20;99.90;;;;;;5015690;28;20029;-84
2023/04/30 07:07:08;;;;;;;9.32;8.00;;;11.10;99.90;;;;;;5015793;28;20022;-84
2023/04/30 07:09:35;;;;;;;9.13;8.23;;;11.20;99.90;;;;;;5013184;28;20069;-84
2023/04/30 07:12:02;;;;;;;14.32;8.10;;;11.20;99.90;;;;;;5007082;28;20072;-85
2023/04/30 07:14:28;;;;;;;10.48;7.80;;;11.20;99.90;;;;;;4994397;28;20069;-86
2023/04/30 07:16:55;;;;;;;12.98;8.48;;;11.20;99.90;;;;;;4993561;28;20026;-87
2023/04/30 07:19:22;;;;;;;11.68;8.23;;;11.20;99.90;;;;;;4976691;28;20425;-85
2023/04/30 07:21:47;;;;;;;8.45;7.75;;;11.40;99.90;;;;;;5019571;28;20069;-86
2023/04/30 07:24:13;;;;;;;9.55;8.55;;;11.10;99.90;;;;;;5025826;28;20026;-87
2023/04/30 07:26:38;;;;;;;11.23;8.55;;;11.20;99.90;;;;;;5015473;28;20080;-86
2023/04/30 07:29:04;;;;;;;13.80;8.52;;;11.20;99.90;;;;;;5014988;28;20033;-86
2023/04/30 07:31:30;;;;;;;11.07;8.65;;;11.20;99.90;;;;;;5015638;28;20033;-86
2023/04/30 07:33:55;;;;;;;9.13;7.85;;;11.20;99.90;;;;;;5015265;28;20536;-85
2023/04/30 07:36:21;;;;;;;9.80;7.88;;;11.30;99.90;;;;;;5011994;28;20029;-85
2023/04/30 07:38:47;;;;;;;10.00;8.48;;;11.40;99.90;;;;;;4996011;28;20054;-84
2023/04/30 07:41:13;;;;;;;10.77;8.98;;;11.40;99.90;;;;;;5003141;28;20462;-83
2023/04/30 07:43:38;;;;;;;9.88;8.80;;;11.40;99.90;;;;;;5014973;28;20018;-87
2023/04/30 07:46:04;;;;;;;10.05;8.27;;;11.50;99.90;;;;;;5016122;28;20037;-87
2023/04/30 07:48:30;;;;;;;8.93;7.85;;;11.50;99.90;;;;;;5008828;28;20587;-85
2023/04/30 07:50:56;;;;;;;9.82;8.82;;;11.50;99.90;;;;;;4993906;28;20539;-87
2023/04/30 07:53:25;;;;;;;9.77;8.75;;;11.50;99.90;;;;;;4993738;28;20034;-87
2023/04/30 07:55:50;;;;;;;10.32;8.18;;;11.60;99.90;;;;;;4992896;28;20614;-87
2023/04/30 07:58:16;;;;;;;10.15;8.07;;;11.70;99.90;;;;;;5010361;28;20109;-89
2023/04/30 08:00:41;;;;;;;10.35;7.90;;;11.70;99.90;;;;;;5007629;28;20053;-88
2023/04/30 08:03:07;;;;;;;10.73;8.38;;;12.00;99.90;;;;;;5007611;28;20469;-89
2023/04/30 08:05:32;;;;;;;9.48;8.27;;;11.80;99.90;;;;;;5013359;28;20429;-86
2023/04/30 08:07:58;;;;;;;9.15;8.20;;;11.80;99.90;;;;;;5014403;28;20049;-87
2023/04/30 08:10:25;;;;;;;11.02;8.60;;;12.00;99.90;;;;;;5014524;28;20085;-87
2023/04/30 08:12:51;;;;;;;10.20;8.10;;;11.90;99.90;;;;;;5013745;28;20041;-86
2023/04/30 08:15:20;;;;;;;11.40;9.30;;;11.90;99.90;;;;;;5014867;28;20032;-86
2023/04/30 08:17:49;;;;;;;9.57;8.15;;;12.00;99.90;;;;;;5003495;28;20030;-86
2023/04/30 08:20:15;;;;;;;9.25;8.35;;;11.90;99.90;;;;;;4994956;28;20068;-85
2023/04/30 08:22:41;;;;;;;9.93;8.93;;;11.90;99.90;;;;;;4994723;28;20026;-87
2023/04/30 08:25:11;;;;;;;9.23;8.18;;;11.90;99.90;;;;;;4995835;28;20031;-87
2023/04/30 08:27:36;;;;;;;10.30;8.95;;;12.00;99.90;;;;;;4995061;28;20030;-87
2023/04/30 08:30:02;;;;;;;10.48;9.10;;;12.00;99.90;;;;;;4997115;28;20029;-86
2023/04/30 08:32:28;;;;;;;12.30;8.27;;;12.00;99.90;;;;;;4994594;28;20374;-83
2023/04/30 08:34:54;;;;;;;11.18;9.48;;;12.00;99.90;;;;;;4994594;28;20022;-84
2023/04/30 08:37:19;;;;;;;10.80;8.88;;;12.00;99.90;;;;;;5005494;28;20040;-85
2023/04/30 08:39:45;;;;;;;10.30;7.97;;;12.00;99.90;;;;;;5013923;28;20025;-86
2023/04/30 08:42:13;;;;;;;12.27;8.35;;;12.00;99.90;;;;;;5014050;28;20048;-86
2023/04/30 08:44:42;;;;;;;12.48;8.75;;;12.00;99.90;;;;;;5023116;28;20054;-85
2023/04/30 08:47:13;;;;;;;9.20;8.07;;;12.10;99.90;;;;;;5014619;28;20046;-85
2023/04/30 08:49:39;;;;;;;;;;;12.10;99.90;;;;;;4999687;28;20040;-87
2023/04/30 08:52:04;;;;;;;12.40;9.15;;;12.20;99.90;;;;;;4998469;28;19914;-85
2023/04/30 08:54:33;;;;;;;10.48;8.57;;;12.20;99.90;;;;;;4993610;28;20021;-84
2023/04/30 08:56:59;;;;;;;10.20;9.10;;;12.20;99.90;;;;;;4993426;28;20293;-83
2023/04/30 08:59:24;;;;;;;9.25;8.13;;;12.30;99.90;;;;;;5007772;28;20030;-85
2023/04/30 09:01:50;;;;;;;8.90;8.00;;;12.30;99.90;;;;;;4995932;28;20019;-87
2023/04/30 09:04:15;;;;;;;9.45;8.50;;;12.30;99.90;;;;;;5013130;28;20026;-87
2023/04/30 09:06:42;;;;;;;9.00;8.20;;;12.30;99.90;;;;;;5012950;28;20405;-86
2023/04/30 09:09:13;;;;;;;9.73;8.73;;;12.40;99.90;;;;;;5003778;28;20034;-88
2023/04/30 09:11:40;;;;;;;10.15;8.95;;;12.40;99.90;;;;;;5013502;28;20026;-89
2023/04/30 09:14:06;;;;;;;9.27;8.35;;;12.40;99.90;;;;;;5013523;28;20036;-85
2023/04/30 09:16:52;;;;;;;9.68;8.68;;;12.50;99.90;;;;;;5012789;28;20113;-84
2023/04/30 09:19:29;;;;;;;9.82;8.80;;;12.50;99.90;;;;;;5013724;28;20029;-84
2023/04/30 09:21:56;;;;;;;8.68;7.78;;;12.50;99.90;;;;;;5013082;28;20029;-89
2023/04/30 09:24:22;;;;;;;9.80;8.77;;;12.50;99.90;;;;;;5013612;28;20026;-85
2023/04/30 09:26:49;;;;;;;12.55;8.90;;;12.50;99.90;;;;;;5013739;28;20482;-85
2023/04/30 09:29:15;;;;;;;9.55;8.57;;;12.60;99.90;;;;;;5011756;28;20037;-83
2023/04/30 09:31:45;;;;;;;10.40;8.77;;;12.60;99.90;;;;;;5007702;28;20026;-83
2023/04/30 09:34:12;;;;;;;10.15;8.15;;;12.60;99.90;;;;;;5003901;28;20046;-83
2023/04/30 09:36:53;;;;;;;12.25;8.70;;;12.60;99.90;;;;;;5012987;28;20029;-86
2023/04/30 09:39:19;;;;;;;12.90;8.07;;;12.70;99.90;;;;;;5011827;28;20030;-85
2023/04/30 09:41:45;;;;;;;10.15;9.13;;;12.80;99.90;;;;;;5009828;28;20046;-85
2023/04/30 09:44:28;;;;;;;9.57;8.63;;;12.80;99.90;;;;;;4999061;28;20359;-87
2023/04/30 09:46:56;;;;;;;9.65;8.75;;;12.80;99.90;;;;;;5005522;28;20022;-89
2023/04/30 09:49:22;;;;;;;8.65;7.85;;;12.90;99.90;;;;;;5000306;28;20501;-85
2023/04/30 09:51:58;;;;;;;9.07;7.10;;;12.90;99.90;;;;;;4993424;28;20026;-85
2023/04/30 09:54:31;;;;;;;9.18;8.15;;;12.90;99.90;;;;;;5001539;28;20025;-84
2023/04/30 09:56:58;;;;;;;8.52;7.60;;;12.80;99.90;;;;;;5003146;28;20025;-84
2023/04/30 09:59:30;;;;;;;10.02;9.02;;;12.90;99.90;;;;;;5002221;28;20395;-84
2023/04/30 10:01:59;;;;;;;9.73;8.85;;;13.00;99.90;;;;;;5002022;28;20470;-84
2023/04/30 10:04:27;;;;;;;9.60;8.75;;;13.00;99.90;;;;;;5003257;28;20014;-85
2023/04/30 10:06:56;;;;;;;9.60;8.55;;;13.00;99.90;;;;;;5006043;28;20041;-85
2023/04/30 10:09:23;;;;;;;10.25;9.32;;;13.00;99.90;;;;;;5013439;28;20029;-85
2023/04/30 10:11:49;;;;;;;10.32;9.27;;;13.00;99.90;;;;;;4999550;28;20058;-85
2023/04/30 10:14:18;;;;;;;13.80;10.80;;;13.00;99.90;;;;;;5002861;28;20378;-84
2023/04/30 10:17:12;;;;;;;9.60;8.60;;;13.10;99.90;;;;;;5005402;28;20014;-84
2023/04/30 10:19:42;;;;;;;14.80;10.63;;;13.10;99.90;;;;;;5005282;28;20018;-84
2023/04/30 10:22:09;;;;;;;14.35;10.13;;;13.20;99.90;;;;;;5006338;28;20057;-86
2023/04/30 10:24:37;;;;;;;10.30;9.40;;;13.20;99.90;;;;;;5001102;28;20128;-85
2023/04/30 10:27:03;;;;;;;9.85;8.93;;;13.20;99.90;;;;;;5006386;28;20354;-84
2023/04/30 10:29:28;;;;;;;10.90;8.90;;;13.30;99.90;;;;;;5003925;28;20027;-85
2023/04/30 10:31:55;;;;;;;13.30;9.57;;;13.40;99.90;;;;;;5001080;28;20037;-84
2023/04/30 10:34:39;;;;;;;9.82;8.95;;;13.40;99.90;;;;;;5003332;28;20036;-84
2023/04/30 10:37:19;;;;;;;10.25;7.75;;;13.40;99.90;;;;;;5001233;28;20097;-84
2023/04/30 10:39:45;;;;;;;9.68;8.57;;;13.40;99.90;;;;;;5000108;28;20053;-86
2023/04/30 10:42:13;;;;;;;12.98;9.90;;;13.40;99.90;;;;;;5001505;28;20490;-85
2023/04/30 10:44:39;;;;;;;9.93;8.90;;;13.40;99.90;;;;;;5000327;28;20036;-86
2023/04/30 10:47:06;;;;;;;12.15;9.50;;;13.40;99.90;;;;;;5000961;28;20014;-86
2023/04/30 10:49:32;;;;;;;10.98;9.98;;;13.40;99.90;;;;;;5002264;28;20026;-85
2023/04/30 10:52:03;;;;;;;12.07;9.32;;;13.50;99.90;;;;;;5002428;28;20415;-85
2023/04/30 10:54:30;;;;;;;8.82;8.13;;;13.50;99.90;;;;;;5000024;28;20022;-85
2023/04/30 10:57:14;;;;;;;10.63;8.00;;;13.60;99.90;;;;;;5005810;28;20018;-86
2023/04/30 10:59:50;;;;;;;8.23;7.47;;;13.70;99.90;;;;;;5004580;28;20038;-85
2023/04/30 11:02:16;;;;;;;11.68;7.78;;;13.80;99.90;;;;;;5003567;28;20022;-85
2023/04/30 11:05:07;;;;;;;9.10;7.60;;;13.80;99.90;;;;;;4999576;28;20397;-85
2023/04/30 11:07:33;;;;;;;8.52;7.70;;;13.80;99.90;;;;;;4999423;28;20030;-86
2023/04/30 11:10:00;;;;;;;7.88;7.20;;;13.80;99.90;;;;;;5002127;28;20201;-85
2023/04/30 11:12:27;;;;;;;8.18;7.40;;;13.90;99.90;;;;;;5007793;28;20072;-86
2023/04/30 11:15:21;;;;;;;9.38;7.20;;;14.10;99.90;;;;;;5006491;28;20540;-85
2023/04/30 11:17:48;;;;;;;7.47;6.65;;;14.00;99.90;;;;;;4987126;28;20556;-84
2023/04/30 11:20:19;;;;;;;7.10;6.43;;;14.00;99.90;;;;;;5004528;28;20042;-85
2023/04/30 11:22:44;;;;;;;7.30;6.70;;;14.00;99.90;;;;;;5002659;28;20040;-86
2023/04/30 11:25:12;;;;;;;8.73;7.75;;;14.10;99.90;;;;;;5006023;28;20121;-87
2023/04/30 11:27:41;;;;;;;8.15;7.20;;;14.00;99.90;;;;;;5005427;28;20493;-85
2023/04/30 11:30:16;;;;;;;6.60;5.90;;;14.00;99.90;;;;;;5009887;28;20049;-85
2023/04/30 11:32:46;;;;;;;7.40;6.75;;;14.20;99.90;;;;;;5006724;28;20044;-84
2023/04/30 11:35:13;;;;;;;7.78;5.80;;;14.20;99.90;;;;;;5003036;28;20105;-84
2023/04/30 11:37:42;;;;;;;6.68;6.10;;;14.20;99.90;;;;;;5003629;28;20045;-83
2023/04/30 11:40:10;;;;;;;7.13;5.57;;;14.20;99.90;;;;;;5003956;28;20050;-83
2023/04/30 11:42:40;;;;;;;6.60;5.90;;;14.10;99.90;;;;;;5008824;28;20035;-86
2023/04/30 11:45:08;;;;;;;7.03;6.10;;;14.20;99.90;;;;;;5011267;28;20382;-87
2023/04/30 11:47:45;;;;;;;6.97;6.30;;;14.10;99.90;;;;;;5015265;28;20022;-87
2023/04/30 11:50:12;;;;;;;5.38;4.65;;;14.20;99.90;;;;;;5007953;28;20116;-86
2023/04/30 11:52:39;;;;;;;7.75;5.70;;;14.20;99.90;;;;;;4996645;28;20077;-86
2023/04/30 11:55:16;;;;;;;6.72;5.45;;;14.20;99.90;;;;;;5004470;28;20026;-86
2023/04/30 11:57:43;;;;;;;5.53;4.47;;;14.30;99.90;;;;;;4995827;28;20113;-86
2023/04/30 12:00:20;;;;;;;5.07;4.68;;;14.30;99.90;;;;;;4995249;28;20033;-86
2023/04/30 12:02:47;;;;;;;4.85;4.30;;;14.30;99.90;;;;;;4995100;28;20026;-86
2023/04/30 12:05:16;;;;;;;4.50;4.10;;;14.40;99.90;;;;;;4994779;28;20022;-86
2023/04/30 12:07:59;;;;;;;4.53;4.20;;;14.40;99.90;;;;;;4995025;28;20026;-84
2023/04/30 12:10:24;;;;;;;5.10;4.60;;;14.50;99.90;;;;;;4994378;28;20374;-86
2023/04/30 12:12:51;;;;;;;3.63;3.33;;;14.60;99.90;;;;;;4994699;28;20038;-86
2023/04/30 12:15:18;;;;;;;3.92;3.63;;;14.60;99.90;;;;;;4994939;28;20030;-86
2023/04/30 12:17:45;;;;;;;4.35;3.88;;;14.60;99.90;;;;;;4994218;28;20185;-86
2023/04/30 12:20:14;;;;;;;3.72;3.42;;;14.50;99.90;;;;;;4995508;28;20054;-87
2023/04/30 12:22:44;;;;;;;4.22;3.60;;;14.50;99.90;;;;;;4994349;28;20026;-85
2023/04/30 12:25:14;;;;;;;3.63;3.33;;;14.60;99.90;;;;;;5007620;28;20030;-85
2023/04/30 12:27:40;;;;;;;;;;;14.70;99.90;;;;;;5012662;28;20034;-85
2023/04/30 12:30:07;;;;;;;3.22;3.03;;;14.70;99.90;;;;;;5011063;28;19917;-86
2023/04/30 12:32:40;;;;;;;3.60;2.72;;;14.70;99.90;;;;;;5003223;28;20037;-85
2023/04/30 12:35:07;;;;;;;3.42;3.05;;;14.60;99.90;;;;;;5010105;28;20084;-83
2023/04/30 12:37:33;;;;;;;5.22;3.03;;;14.70;99.90;;;;;;5003411;28;20030;-84
2023/04/30 12:39:59;;;;;;;3.15;2.95;;;14.80;99.90;;;;;;5005513;28;20504;-85
2023/04/30 12:42:31;;;;;;;3.05;2.75;;;14.90;99.90;;;;;;4992733;28;20037;-86
2023/04/30 12:44:57;;;;;;;3.38;2.85;;;15.00;99.90;;;;;;4990053;28;20390;-86